Perth, Australia
Current Conditions -  °F | °C
As of 6:00 PM on Sunday 21 Dec 2014 (Local Time) from YPPH Reporting Station
Clear Clear  
Wind Chill: 81°   Ceiling: Unl
Heat Index: 81°   Visibility: 6mi
Dew Point: 54°   Wind: 20mph
Humidity: 39%   Direction: 220°SW
Pressure: 29.91"   Gusts: NA
Location:  31.96°S, 115.86°E
Report Text: YPPH 211000Z 22017KT CAVOK 27/12 Q1013 NOSIG
Loading
Personal Weather Stations






























Interactive Weather Map New forecast layout! Learn more

10-Day Weather Forecast

Advertisements
Track Severe Weather on mobile